YDN weather

Public forecast

Using degrees Celsius for public forecast. Weather courtesy of forecast.io.

Current aviation weather report (METAR) for Dauphin Barker Airport

Retrieved 2020/08/12 18:00 UTC (12 minutes ago):

CYDN 121800Z AUTO 12014G21KT 9SM CLR 26/13 A2986 RMK SLP115 DENSITY ALT 2500FT

Aviation forecast (TAF) for Dauphin Barker Airport

Retrieved 2020/08/12 18:42 UTC (0 seconds ago):

TAF CYDN 121740Z 1218/1306 13015G25KT P6SM FEW110 FM122200 12015G25KT P6SM SCT050 BKN240 PROB40 1222/1304 VRB20G30KT 1SM +TSRA BKN020CB FM130400 18010KT P6SM SCT030 PROB30 1304/1306 VRB15G25KT 3SM TSRA BKN020CB RMK FCST BASED ON AUTO OBS NXT FCST BY 130000Z